sensor_id;sensor_type;location;lat;lon;timestamp;temperature;humidity
3344;DHT22;1685;53.104;8.228;2022-11-23T00:00:30;6.40;99.90
3344;DHT22;1685;53.104;8.228;2022-11-23T00:02:59;6.40;99.90
3344;DHT22;1685;53.104;8.228;2022-11-23T00:05:27;6.30;99.90
3344;DHT22;1685;53.104;8.228;2022-11-23T00:10:21;6.30;99.90
3344;DHT22;1685;53.104;8.228;2022-11-23T00:12:48;6.30;99.90
3344;DHT22;1685;53.104;8.228;2022-11-23T00:15:15;6.40;99.90
3344;DHT22;1685;53.104;8.228;2022-11-23T00:20:10;6.30;99.90
3344;DHT22;1685;53.104;8.228;2022-11-23T00:25:05;6.20;99.90
3344;DHT22;1685;53.104;8.228;2022-11-23T00:29:58;6.40;99.90
3344;DHT22;1685;53.104;8.228;2022-11-23T00:32:25;6.40;99.90
3344;DHT22;1685;53.104;8.228;2022-11-23T00:34:54;6.40;99.90
3344;DHT22;1685;53.104;8.228;2022-11-23T00:37:22;6.20;99.90
3344;DHT22;1685;53.104;8.228;2022-11-23T00:42:15;6.20;99.90
3344;DHT22;1685;53.104;8.228;2022-11-23T00:44:42;6.50;99.90
3344;DHT22;1685;53.104;8.228;2022-11-23T00:47:09;6.00;99.90
3344;DHT22;1685;53.104;8.228;2022-11-23T00:52:03;6.30;99.90
3344;DHT22;1685;53.104;8.228;2022-11-23T00:54:31;6.30;99.90
3344;DHT22;1685;53.104;8.228;2022-11-23T00:56:57;6.30;99.90
3344;DHT22;1685;53.104;8.228;2022-11-23T01:01:53;6.30;99.90
3344;DHT22;1685;53.104;8.228;2022-11-23T01:06:47;6.50;99.90
3344;DHT22;1685;53.104;8.228;2022-11-23T01:09:16;6.30;99.90
3344;DHT22;1685;53.104;8.228;2022-11-23T01:11:46;6.50;99.90
3344;DHT22;1685;53.104;8.228;2022-11-23T01:14:12;6.40;99.90
3344;DHT22;1685;53.104;8.228;2022-11-23T01:16:40;6.40;99.90
3344;DHT22;1685;53.104;8.228;2022-11-23T01:19:10;6.20;99.90
3344;DHT22;1685;53.104;8.228;2022-11-23T01:24:04;6.40;99.90
3344;DHT22;1685;53.104;8.228;2022-11-23T01:29:00;6.40;99.90
3344;DHT22;1685;53.104;8.228;2022-11-23T01:31:26;6.40;99.90
3344;DHT22;1685;53.104;8.228;2022-11-23T01:33:54;6.40;99.90
3344;DHT22;1685;53.104;8.228;2022-11-23T01:36:23;6.40;99.90
3344;DHT22;1685;53.104;8.228;2022-11-23T01:41:19;6.30;99.90
3344;DHT22;1685;53.104;8.228;2022-11-23T01:43:46;6.30;99.90
3344;DHT22;1685;53.104;8.228;2022-11-23T01:46:14;6.30;99.90
3344;DHT22;1685;53.104;8.228;2022-11-23T01:48:44;6.40;99.90
3344;DHT22;1685;53.104;8.228;2022-11-23T01:51:14;6.40;99.90
3344;DHT22;1685;53.104;8.228;2022-11-23T01:56:13;6.20;99.90
3344;DHT22;1685;53.104;8.228;2022-11-23T01:58:43;6.40;99.90
3344;DHT22;1685;53.104;8.228;2022-11-23T02:01:11;6.40;99.90
3344;DHT22;1685;53.104;8.228;2022-11-23T02:03:41;6.40;99.90
3344;DHT22;1685;53.104;8.228;2022-11-23T02:06:12;6.50;99.90
3344;DHT22;1685;53.104;8.228;2022-11-23T02:08:40;6.60;99.90
3344;DHT22;1685;53.104;8.228;2022-11-23T02:11:09;6.50;99.90
3344;DHT22;1685;53.104;8.228;2022-11-23T02:16:04;6.50;99.90
3344;DHT22;1685;53.104;8.228;2022-11-23T02:18:32;6.50;99.90
3344;DHT22;1685;53.104;8.228;2022-11-23T02:21:03;6.60;99.90
3344;DHT22;1685;53.104;8.228;2022-11-23T02:23:35;6.50;99.90
3344;DHT22;1685;53.104;8.228;2022-11-23T02:26:07;6.50;99.90
3344;DHT22;1685;53.104;8.228;2022-11-23T02:28:38;6.50;99.90
3344;DHT22;1685;53.104;8.228;2022-11-23T02:31:06;6.60;99.90
3344;DHT22;1685;53.104;8.228;2022-11-23T02:33:32;6.50;99.90
3344;DHT22;1685;53.104;8.228;2022-11-23T02:36:00;6.60;99.90
3344;DHT22;1685;53.104;8.228;2022-11-23T02:38:30;6.70;99.90
3344;DHT22;1685;53.104;8.228;2022-11-23T02:40:57;6.60;99.90
3344;DHT22;1685;53.104;8.228;2022-11-23T02:43:25;6.60;99.90
3344;DHT22;1685;53.104;8.228;2022-11-23T02:45:54;6.50;99.90
3344;DHT22;1685;53.104;8.228;2022-11-23T02:48:21;6.50;99.90
3344;DHT22;1685;53.104;8.228;2022-11-23T02:53:15;6.60;99.90
3344;DHT22;1685;53.104;8.228;2022-11-23T02:55:42;6.60;99.90
3344;DHT22;1685;53.104;8.228;2022-11-23T02:58:09;6.70;99.90
3344;DHT22;1685;53.104;8.228;2022-11-23T03:00:37;6.60;99.90
3344;DHT22;1685;53.104;8.228;2022-11-23T03:03:04;6.70;99.90
3344;DHT22;1685;53.104;8.228;2022-11-23T03:07:58;6.60;99.90
3344;DHT22;1685;53.104;8.228;2022-11-23T03:10:25;6.60;99.90
3344;DHT22;1685;53.104;8.228;2022-11-23T03:12:53;6.60;99.90
3344;DHT22;1685;53.104;8.228;2022-11-23T03:15:20;6.70;99.90
3344;DHT22;1685;53.104;8.228;2022-11-23T03:17:49;6.60;99.90
3344;DHT22;1685;53.104;8.228;2022-11-23T03:20:16;6.70;99.90
3344;DHT22;1685;53.104;8.228;2022-11-23T03:22:42;6.70;99.90
3344;DHT22;1685;53.104;8.228;2022-11-23T03:25:09;6.80;99.90
3344;DHT22;1685;53.104;8.228;2022-11-23T03:27:37;6.70;99.90
3344;DHT22;1685;53.104;8.228;2022-11-23T03:30:05;6.60;99.90
3344;DHT22;1685;53.104;8.228;2022-11-23T03:32:33;6.70;99.90
3344;DHT22;1685;53.104;8.228;2022-11-23T03:35:01;6.60;99.90
3344;DHT22;1685;53.104;8.228;2022-11-23T03:37:27;6.70;99.90
3344;DHT22;1685;53.104;8.228;2022-11-23T03:39:54;6.80;99.90
3344;DHT22;1685;53.104;8.228;2022-11-23T03:42:21;6.80;99.90
3344;DHT22;1685;53.104;8.228;2022-11-23T03:44:48;6.90;99.90
3344;DHT22;1685;53.104;8.228;2022-11-23T03:47:14;6.70;99.90
3344;DHT22;1685;53.104;8.228;2022-11-23T03:52:09;6.70;99.90
3344;DHT22;1685;53.104;8.228;2022-11-23T03:54:36;6.80;99.90
3344;DHT22;1685;53.104;8.228;2022-11-23T03:59:30;6.80;99.90
3344;DHT22;1685;53.104;8.228;2022-11-23T04:01:56;6.70;99.90
3344;DHT22;1685;53.104;8.228;2022-11-23T04:04:23;6.80;99.90
3344;DHT22;1685;53.104;8.228;2022-11-23T04:06:50;6.80;99.90
3344;DHT22;1685;53.104;8.228;2022-11-23T04:09:18;6.70;99.90
3344;DHT22;1685;53.104;8.228;2022-11-23T04:11:44;6.90;99.90
3344;DHT22;1685;53.104;8.228;2022-11-23T04:14:11;6.50;99.90
3344;DHT22;1685;53.104;8.228;2022-11-23T04:16:38;6.90;99.90
3344;DHT22;1685;53.104;8.228;2022-11-23T04:19:04;7.00;99.90
3344;DHT22;1685;53.104;8.228;2022-11-23T04:21:31;6.90;99.90
3344;DHT22;1685;53.104;8.228;2022-11-23T04:23:58;6.90;99.90
3344;DHT22;1685;53.104;8.228;2022-11-23T04:26:26;6.70;99.90
3344;DHT22;1685;53.104;8.228;2022-11-23T04:33:47;7.20;99.90
3344;DHT22;1685;53.104;8.228;2022-11-23T04:36:13;7.00;99.90
3344;DHT22;1685;53.104;8.228;2022-11-23T04:38:40;6.90;99.90
3344;DHT22;1685;53.104;8.228;2022-11-23T04:43:35;6.90;99.90
3344;DHT22;1685;53.104;8.228;2022-11-23T04:46:02;6.90;99.90
3344;DHT22;1685;53.104;8.228;2022-11-23T04:50:56;6.90;99.90
3344;DHT22;1685;53.104;8.228;2022-11-23T04:53:23;7.00;99.90
3344;DHT22;1685;53.104;8.228;2022-11-23T04:55:50;7.00;99.90
3344;DHT22;1685;53.104;8.228;2022-11-23T04:58:16;6.90;99.90
3344;DHT22;1685;53.104;8.228;2022-11-23T05:00:44;7.00;99.90
3344;DHT22;1685;53.104;8.228;2022-11-23T05:03:11;6.90;99.90
3344;DHT22;1685;53.104;8.228;2022-11-23T05:05:38;7.10;99.90
3344;DHT22;1685;53.104;8.228;2022-11-23T05:08:05;7.40;99.90
3344;DHT22;1685;53.104;8.228;2022-11-23T05:10:32;7.00;99.90
3344;DHT22;1685;53.104;8.228;2022-11-23T05:13:00;7.00;99.90
3344;DHT22;1685;53.104;8.228;2022-11-23T05:15:27;7.20;99.90
3344;DHT22;1685;53.104;8.228;2022-11-23T05:18:00;7.10;99.90
3344;DHT22;1685;53.104;8.228;2022-11-23T05:20:26;7.10;99.90
3344;DHT22;1685;53.104;8.228;2022-11-23T05:22:53;7.20;99.90
3344;DHT22;1685;53.104;8.228;2022-11-23T05:25:20;7.10;99.90
3344;DHT22;1685;53.104;8.228;2022-11-23T05:27:46;7.10;99.90
3344;DHT22;1685;53.104;8.228;2022-11-23T05:30:13;7.10;99.90
3344;DHT22;1685;53.104;8.228;2022-11-23T05:32:40;7.20;99.90
3344;DHT22;1685;53.104;8.228;2022-11-23T05:35:09;7.00;99.90
3344;DHT22;1685;53.104;8.228;2022-11-23T05:37:36;7.10;99.90
3344;DHT22;1685;53.104;8.228;2022-11-23T05:42:30;7.10;99.90
3344;DHT22;1685;53.104;8.228;2022-11-23T05:44:56;7.00;99.90
3344;DHT22;1685;53.104;8.228;2022-11-23T05:47:23;7.20;99.90
3344;DHT22;1685;53.104;8.228;2022-11-23T05:52:18;7.10;99.90
3344;DHT22;1685;53.104;8.228;2022-11-23T05:57:12;7.20;99.90
3344;DHT22;1685;53.104;8.228;2022-11-23T05:59:40;7.00;99.90
3344;DHT22;1685;53.104;8.228;2022-11-23T06:02:06;7.00;99.90
3344;DHT22;1685;53.104;8.228;2022-11-23T06:04:33;6.90;99.90
3344;DHT22;1685;53.104;8.228;2022-11-23T06:07:00;7.00;99.90
3344;DHT22;1685;53.104;8.228;2022-11-23T06:09:28;7.10;99.90
3344;DHT22;1685;53.104;8.228;2022-11-23T06:11:55;7.00;99.90
3344;DHT22;1685;53.104;8.228;2022-11-23T06:14:22;7.20;99.90
3344;DHT22;1685;53.104;8.228;2022-11-23T06:16:49;7.00;99.90
3344;DHT22;1685;53.104;8.228;2022-11-23T06:19:16;7.00;99.90
3344;DHT22;1685;53.104;8.228;2022-11-23T06:21:43;7.00;99.90
3344;DHT22;1685;53.104;8.228;2022-11-23T06:24:10;7.10;99.90
3344;DHT22;1685;53.104;8.228;2022-11-23T06:26:38;7.00;99.90
3344;DHT22;1685;53.104;8.228;2022-11-23T06:31:32;6.80;99.90
3344;DHT22;1685;53.104;8.228;2022-11-23T06:36:26;7.00;99.90
3344;DHT22;1685;53.104;8.228;2022-11-23T06:38:52;6.80;99.90
3344;DHT22;1685;53.104;8.228;2022-11-23T06:43:48;7.00;99.90
3344;DHT22;1685;53.104;8.228;2022-11-23T06:46:15;7.00;99.90
3344;DHT22;1685;53.104;8.228;2022-11-23T06:48:43;7.10;99.90
3344;DHT22;1685;53.104;8.228;2022-11-23T06:51:10;7.10;99.90
3344;DHT22;1685;53.104;8.228;2022-11-23T06:53:37;7.00;99.90
3344;DHT22;1685;53.104;8.228;2022-11-23T06:58:31;6.90;99.90
3344;DHT22;1685;53.104;8.228;2022-11-23T07:01:00;7.10;99.90
3344;DHT22;1685;53.104;8.228;2022-11-23T07:03:27;7.00;99.90
3344;DHT22;1685;53.104;8.228;2022-11-23T07:08:22;7.10;99.90
3344;DHT22;1685;53.104;8.228;2022-11-23T07:10:48;7.00;99.90
3344;DHT22;1685;53.104;8.228;2022-11-23T07:13:16;6.90;99.90
3344;DHT22;1685;53.104;8.228;2022-11-23T07:15:42;6.90;99.90
3344;DHT22;1685;53.104;8.228;2022-11-23T07:18:11;6.80;99.90
3344;DHT22;1685;53.104;8.228;2022-11-23T07:20:37;7.00;99.90
3344;DHT22;1685;53.104;8.228;2022-11-23T07:23:06;6.90;99.90
3344;DHT22;1685;53.104;8.228;2022-11-23T07:25:34;6.90;99.90
3344;DHT22;1685;53.104;8.228;2022-11-23T07:28:02;6.80;99.90
3344;DHT22;1685;53.104;8.228;2022-11-23T07:30:30;6.80;99.90
3344;DHT22;1685;53.104;8.228;2022-11-23T07:32:58;7.00;99.90
3344;DHT22;1685;53.104;8.228;2022-11-23T07:35:27;6.90;99.90
3344;DHT22;1685;53.104;8.228;2022-11-23T07:37:54;7.30;99.90
3344;DHT22;1685;53.104;8.228;2022-11-23T07:42:48;6.90;99.90
3344;DHT22;1685;53.104;8.228;2022-11-23T07:45:14;7.20;99.90
3344;DHT22;1685;53.104;8.228;2022-11-23T07:47:41;7.00;99.90
3344;DHT22;1685;53.104;8.228;2022-11-23T07:50:09;7.30;99.90
3344;DHT22;1685;53.104;8.228;2022-11-23T07:52:38;6.90;99.90
3344;DHT22;1685;53.104;8.228;2022-11-23T07:55:06;7.00;99.90
3344;DHT22;1685;53.104;8.228;2022-11-23T07:57:33;7.00;99.90
3344;DHT22;1685;53.104;8.228;2022-11-23T08:02:26;7.00;99.90
3344;DHT22;1685;53.104;8.228;2022-11-23T08:04:53;6.90;99.90
3344;DHT22;1685;53.104;8.228;2022-11-23T08:07:20;6.90;99.90
3344;DHT22;1685;53.104;8.228;2022-11-23T08:09:48;7.00;99.90
3344;DHT22;1685;53.104;8.228;2022-11-23T08:12:15;7.00;99.90
3344;DHT22;1685;53.104;8.228;2022-11-23T08:14:42;7.00;99.90
3344;DHT22;1685;53.104;8.228;2022-11-23T08:17:09;7.00;99.90
3344;DHT22;1685;53.104;8.228;2022-11-23T08:19:35;7.20;99.90
3344;DHT22;1685;53.104;8.228;2022-11-23T08:22:02;7.20;99.90
3344;DHT22;1685;53.104;8.228;2022-11-23T08:26:57;7.20;99.90
3344;DHT22;1685;53.104;8.228;2022-11-23T08:44:09;7.30;99.90
3344;DHT22;1685;53.104;8.228;2022-11-23T08:49:04;7.20;99.90
3344;DHT22;1685;53.104;8.228;2022-11-23T09:01:21;7.50;99.90
3344;DHT22;1685;53.104;8.228;2022-11-23T09:11:11;7.50;99.90
3344;DHT22;1685;53.104;8.228;2022-11-23T09:16:06;7.60;99.90
3344;DHT22;1685;53.104;8.228;2022-11-23T09:18:34;7.60;99.90
3344;DHT22;1685;53.104;8.228;2022-11-23T09:21:02;7.60;99.90
3344;DHT22;1685;53.104;8.228;2022-11-23T09:25:57;7.60;99.90
3344;DHT22;1685;53.104;8.228;2022-11-23T09:28:24;7.60;99.90
3344;DHT22;1685;53.104;8.228;2022-11-23T09:30:52;7.60;99.90
3344;DHT22;1685;53.104;8.228;2022-11-23T09:35:55;7.90;99.90
3344;DHT22;1685;53.104;8.228;2022-11-23T09:38:22;7.90;99.90
3344;DHT22;1685;53.104;8.228;2022-11-23T09:40:55;8.00;99.90
3344;DHT22;1685;53.104;8.228;2022-11-23T09:43:37;8.00;99.90
3344;DHT22;1685;53.104;8.228;2022-11-23T09:46:12;8.00;99.90
3344;DHT22;1685;53.104;8.228;2022-11-23T09:48:54;8.00;99.90
3344;DHT22;1685;53.104;8.228;2022-11-23T09:51:28;8.20;99.90
3344;DHT22;1685;53.104;8.228;2022-11-23T09:53:56;8.20;99.90
3344;DHT22;1685;53.104;8.228;2022-11-23T09:56:27;8.20;99.90
3344;DHT22;1685;53.104;8.228;2022-11-23T09:58:57;8.20;99.90
3344;DHT22;1685;53.104;8.228;2022-11-23T10:01:24;8.20;99.90
3344;DHT22;1685;53.104;8.228;2022-11-23T10:03:52;8.20;99.90
3344;DHT22;1685;53.104;8.228;2022-11-23T10:06:21;8.20;99.90
3344;DHT22;1685;53.104;8.228;2022-11-23T10:09:20;8.20;99.90
3344;DHT22;1685;53.104;8.228;2022-11-23T10:12:02;8.10;99.90
3344;DHT22;1685;53.104;8.228;2022-11-23T10:14:50;8.40;99.90
3344;DHT22;1685;53.104;8.228;2022-11-23T10:17:25;8.10;99.90
3344;DHT22;1685;53.104;8.228;2022-11-23T10:20:03;8.40;99.90
3344;DHT22;1685;53.104;8.228;2022-11-23T10:22:45;8.70;99.90
3344;DHT22;1685;53.104;8.228;2022-11-23T10:25:21;8.40;99.90
3344;DHT22;1685;53.104;8.228;2022-11-23T10:27:50;8.50;99.90
3344;DHT22;1685;53.104;8.228;2022-11-23T10:30:19;8.50;99.90
3344;DHT22;1685;53.104;8.228;2022-11-23T10:32:50;8.50;99.90
3344;DHT22;1685;53.104;8.228;2022-11-23T10:35:22;8.50;99.90
3344;DHT22;1685;53.104;8.228;2022-11-23T10:40:22;8.50;99.90
3344;DHT22;1685;53.104;8.228;2022-11-23T10:42:53;8.60;99.90
3344;DHT22;1685;53.104;8.228;2022-11-23T10:45:22;8.60;99.90
3344;DHT22;1685;53.104;8.228;2022-11-23T10:47:51;8.60;99.90
3344;DHT22;1685;53.104;8.228;2022-11-23T10:50:22;8.60;99.90
3344;DHT22;1685;53.104;8.228;2022-11-23T10:52:51;8.60;99.90
3344;DHT22;1685;53.104;8.228;2022-11-23T10:55:24;8.60;99.90
3344;DHT22;1685;53.104;8.228;2022-11-23T11:00:20;8.80;99.90
3344;DHT22;1685;53.104;8.228;2022-11-23T11:02:48;8.90;99.90
3344;DHT22;1685;53.104;8.228;2022-11-23T11:05:28;8.90;99.90
3344;DHT22;1685;53.104;8.228;2022-11-23T11:07:56;8.90;99.90
3344;DHT22;1685;53.104;8.228;2022-11-23T11:10:37;8.70;99.90
3344;DHT22;1685;53.104;8.228;2022-11-23T11:13:21;8.50;99.90
3344;DHT22;1685;53.104;8.228;2022-11-23T11:15:54;8.80;99.90
3344;DHT22;1685;53.104;8.228;2022-11-23T11:18:24;8.80;99.90
3344;DHT22;1685;53.104;8.228;2022-11-23T11:20:57;8.70;99.90
3344;DHT22;1685;53.104;8.228;2022-11-23T11:26:05;8.90;99.90
3344;DHT22;1685;53.104;8.228;2022-11-23T11:28:35;8.90;99.90
3344;DHT22;1685;53.104;8.228;2022-11-23T11:34:06;9.30;99.90
3344;DHT22;1685;53.104;8.228;2022-11-23T11:36:53;9.00;99.90
3344;DHT22;1685;53.104;8.228;2022-11-23T11:39:26;9.00;99.90
3344;DHT22;1685;53.104;8.228;2022-11-23T11:41:57;8.90;99.90
3344;DHT22;1685;53.104;8.228;2022-11-23T11:46:56;9.00;99.90
3344;DHT22;1685;53.104;8.228;2022-11-23T11:49:27;9.00;99.90
3344;DHT22;1685;53.104;8.228;2022-11-23T11:52:01;9.00;99.90
3344;DHT22;1685;53.104;8.228;2022-11-23T11:54:34;9.00;99.90
3344;DHT22;1685;53.104;8.228;2022-11-23T11:57:12;9.00;99.90
3344;DHT22;1685;53.104;8.228;2022-11-23T11:59:42;8.80;99.90
3344;DHT22;1685;53.104;8.228;2022-11-23T12:02:18;9.00;99.90
3344;DHT22;1685;53.104;8.228;2022-11-23T12:04:58;9.10;99.90
3344;DHT22;1685;53.104;8.228;2022-11-23T12:07:29;9.20;99.90
3344;DHT22;1685;53.104;8.228;2022-11-23T12:10:03;9.20;99.90
3344;DHT22;1685;53.104;8.228;2022-11-23T12:12:33;9.30;99.90
3344;DHT22;1685;53.104;8.228;2022-11-23T12:15:02;9.20;99.90
3344;DHT22;1685;53.104;8.228;2022-11-23T12:17:47;9.30;99.90
3344;DHT22;1685;53.104;8.228;2022-11-23T12:20:22;9.30;99.90
3344;DHT22;1685;53.104;8.228;2022-11-23T12:23:04;9.40;99.90
3344;DHT22;1685;53.104;8.228;2022-11-23T12:25:33;9.40;99.90
3344;DHT22;1685;53.104;8.228;2022-11-23T12:28:16;9.40;99.90
3344;DHT22;1685;53.104;8.228;2022-11-23T12:30:50;9.50;99.90
3344;DHT22;1685;53.104;8.228;2022-11-23T12:33:38;9.50;99.90
3344;DHT22;1685;53.104;8.228;2022-11-23T12:36:22;9.40;99.90
3344;DHT22;1685;53.104;8.228;2022-11-23T12:38:54;9.50;99.90
3344;DHT22;1685;53.104;8.228;2022-11-23T12:41:23;9.40;99.90
3344;DHT22;1685;53.104;8.228;2022-11-23T12:44:17;9.60;99.90
3344;DHT22;1685;53.104;8.228;2022-11-23T12:46:51;9.60;99.90
3344;DHT22;1685;53.104;8.228;2022-11-23T12:49:28;9.70;99.90
3344;DHT22;1685;53.104;8.228;2022-11-23T12:52:02;9.70;99.90
3344;DHT22;1685;53.104;8.228;2022-11-23T12:54:46;9.70;99.90
3344;DHT22;1685;53.104;8.228;2022-11-23T12:57:20;9.80;99.90
3344;DHT22;1685;53.104;8.228;2022-11-23T12:59:52;9.80;99.90
3344;DHT22;1685;53.104;8.228;2022-11-23T13:05:39;9.80;99.90
3344;DHT22;1685;53.104;8.228;2022-11-23T13:08:41;9.70;99.90
3344;DHT22;1685;53.104;8.228;2022-11-23T13:11:20;9.70;99.90
3344;DHT22;1685;53.104;8.228;2022-11-23T13:14:02;9.60;99.90
3344;DHT22;1685;53.104;8.228;2022-11-23T13:16:45;9.80;99.90
3344;DHT22;1685;53.104;8.228;2022-11-23T13:19:29;9.60;99.90
3344;DHT22;1685;53.104;8.228;2022-11-23T13:22:04;9.60;99.90
3344;DHT22;1685;53.104;8.228;2022-11-23T13:24:33;9.70;99.90
3344;DHT22;1685;53.104;8.228;2022-11-23T13:27:40;9.70;99.90
3344;DHT22;1685;53.104;8.228;2022-11-23T13:30:19;9.70;99.90
3344;DHT22;1685;53.104;8.228;2022-11-23T13:36:01;9.70;99.90
3344;DHT22;1685;53.104;8.228;2022-11-23T13:38:39;9.70;99.90
3344;DHT22;1685;53.104;8.228;2022-11-23T13:44:24;9.70;99.90
3344;DHT22;1685;53.104;8.228;2022-11-23T13:47:18;9.60;99.90
3344;DHT22;1685;53.104;8.228;2022-11-23T13:49:48;9.60;99.90
3344;DHT22;1685;53.104;8.228;2022-11-23T13:52:25;9.50;99.90
3344;DHT22;1685;53.104;8.228;2022-11-23T13:54:55;9.70;99.90
3344;DHT22;1685;53.104;8.228;2022-11-23T13:57:22;9.80;99.90
3344;DHT22;1685;53.104;8.228;2022-11-23T13:59:49;9.70;99.90
3344;DHT22;1685;53.104;8.228;2022-11-23T14:02:26;9.70;99.90
3344;DHT22;1685;53.104;8.228;2022-11-23T14:07:55;9.40;99.90
3344;DHT22;1685;53.104;8.228;2022-11-23T14:10:23;9.40;99.90
3344;DHT22;1685;53.104;8.228;2022-11-23T14:12:54;9.40;99.90
3344;DHT22;1685;53.104;8.228;2022-11-23T14:15:23;9.50;99.90
3344;DHT22;1685;53.104;8.228;2022-11-23T14:20:58;9.40;99.90
3344;DHT22;1685;53.104;8.228;2022-11-23T14:23:49;9.30;99.90
3344;DHT22;1685;53.104;8.228;2022-11-23T14:26:32;9.50;99.90
3344;DHT22;1685;53.104;8.228;2022-11-23T14:32:21;9.20;99.90
3344;DHT22;1685;53.104;8.228;2022-11-23T14:35:10;9.10;99.90
3344;DHT22;1685;53.104;8.228;2022-11-23T14:37:46;9.00;99.90
3344;DHT22;1685;53.104;8.228;2022-11-23T14:40:23;9.00;99.90
3344;DHT22;1685;53.104;8.228;2022-11-23T14:42:53;8.90;99.90
3344;DHT22;1685;53.104;8.228;2022-11-23T14:45:22;8.90;99.90
3344;DHT22;1685;53.104;8.228;2022-11-23T14:50:20;8.80;99.90
3344;DHT22;1685;53.104;8.228;2022-11-23T14:52:48;8.70;99.90
3344;DHT22;1685;53.104;8.228;2022-11-23T14:55:20;8.70;99.90
3344;DHT22;1685;53.104;8.228;2022-11-23T14:57:48;8.70;99.90
3344;DHT22;1685;53.104;8.228;2022-11-23T15:00:25;8.70;99.90
3344;DHT22;1685;53.104;8.228;2022-11-23T15:02:54;8.60;99.90
3344;DHT22;1685;53.104;8.228;2022-11-23T15:05:25;8.60;99.90
3344;DHT22;1685;53.104;8.228;2022-11-23T15:07:57;8.60;99.90
3344;DHT22;1685;53.104;8.228;2022-11-23T15:10:35;8.60;99.90
3344;DHT22;1685;53.104;8.228;2022-11-23T15:13:16;8.50;99.90
3344;DHT22;1685;53.104;8.228;2022-11-23T15:20:42;8.40;99.90
3344;DHT22;1685;53.104;8.228;2022-11-23T15:23:17;8.00;99.90
3344;DHT22;1685;53.104;8.228;2022-11-23T15:25:51;8.20;99.90
3344;DHT22;1685;53.104;8.228;2022-11-23T15:28:20;8.10;99.90
3344;DHT22;1685;53.104;8.228;2022-11-23T15:33:18;8.00;99.90
3344;DHT22;1685;53.104;8.228;2022-11-23T15:38:14;7.80;99.90
3344;DHT22;1685;53.104;8.228;2022-11-23T15:40:42;7.80;99.90
3344;DHT22;1685;53.104;8.228;2022-11-23T15:43:13;7.60;99.90
3344;DHT22;1685;53.104;8.228;2022-11-23T15:46:02;7.40;99.90
3344;DHT22;1685;53.104;8.228;2022-11-23T15:48:32;7.30;99.90
3344;DHT22;1685;53.104;8.228;2022-11-23T15:51:00;7.40;99.90
3344;DHT22;1685;53.104;8.228;2022-11-23T15:53:29;7.30;99.90
3344;DHT22;1685;53.104;8.228;2022-11-23T15:55:59;7.30;99.90
3344;DHT22;1685;53.104;8.228;2022-11-23T15:58:28;7.00;99.90
3344;DHT22;1685;53.104;8.228;2022-11-23T16:01:00;7.00;99.90
3344;DHT22;1685;53.104;8.228;2022-11-23T16:03:32;7.00;99.90
3344;DHT22;1685;53.104;8.228;2022-11-23T16:06:24;6.90;99.90
3344;DHT22;1685;53.104;8.228;2022-11-23T16:08:52;6.80;99.90
3344;DHT22;1685;53.104;8.228;2022-11-23T16:11:28;6.90;99.90
3344;DHT22;1685;53.104;8.228;2022-11-23T16:14:15;6.40;99.90
3344;DHT22;1685;53.104;8.228;2022-11-23T16:19:23;6.50;99.90
3344;DHT22;1685;53.104;8.228;2022-11-23T16:21:53;6.50;99.90
3344;DHT22;1685;53.104;8.228;2022-11-23T16:24:23;6.40;99.90
3344;DHT22;1685;53.104;8.228;2022-11-23T16:29:22;6.30;99.90
3344;DHT22;1685;53.104;8.228;2022-11-23T16:31:55;6.10;99.90
3344;DHT22;1685;53.104;8.228;2022-11-23T16:46:43;5.90;99.90
3344;DHT22;1685;53.104;8.228;2022-11-23T16:49:13;5.80;99.90
3344;DHT22;1685;53.104;8.228;2022-11-23T16:56:36;5.70;99.90
3344;DHT22;1685;53.104;8.228;2022-11-23T17:01:31;5.60;99.90
3344;DHT22;1685;53.104;8.228;2022-11-23T17:03:59;5.40;99.90
3344;DHT22;1685;53.104;8.228;2022-11-23T17:11:24;5.40;99.90
3344;DHT22;1685;53.104;8.228;2022-11-23T17:13:53;5.50;99.90
3344;DHT22;1685;53.104;8.228;2022-11-23T17:16:22;5.40;99.90
3344;DHT22;1685;53.104;8.228;2022-11-23T17:21:18;5.20;99.90
3344;DHT22;1685;53.104;8.228;2022-11-23T17:26:26;5.20;99.90
3344;DHT22;1685;53.104;8.228;2022-11-23T17:33:48;6.10;99.90
3344;DHT22;1685;53.104;8.228;2022-11-23T17:38:44;5.10;99.90
3344;DHT22;1685;53.104;8.228;2022-11-23T17:41:12;5.20;99.90
3344;DHT22;1685;53.104;8.228;2022-11-23T17:46:12;5.10;99.90
3344;DHT22;1685;53.104;8.228;2022-11-23T17:51:09;5.10;99.90
3344;DHT22;1685;53.104;8.228;2022-11-23T17:53:36;5.00;99.90
3344;DHT22;1685;53.104;8.228;2022-11-23T17:56:05;5.00;99.90
3344;DHT22;1685;53.104;8.228;2022-11-23T18:00:59;5.00;99.90
3344;DHT22;1685;53.104;8.228;2022-11-23T18:03:26;5.10;99.90
3344;DHT22;1685;53.104;8.228;2022-11-23T18:13:16;5.10;99.90
3344;DHT22;1685;53.104;8.228;2022-11-23T18:25:31;5.30;99.90
3344;DHT22;1685;53.104;8.228;2022-11-23T18:27:57;5.50;99.90
3344;DHT22;1685;53.104;8.228;2022-11-23T18:30:25;5.50;99.90
3344;DHT22;1685;53.104;8.228;2022-11-23T18:35:20;5.50;99.90
3344;DHT22;1685;53.104;8.228;2022-11-23T18:40:14;5.70;99.90
3344;DHT22;1685;53.104;8.228;2022-11-23T18:42:41;5.70;99.90
3344;DHT22;1685;53.104;8.228;2022-11-23T18:45:08;6.00;99.90
3344;DHT22;1685;53.104;8.228;2022-11-23T18:47:36;5.90;99.90
3344;DHT22;1685;53.104;8.228;2022-11-23T18:52:30;5.80;99.90
3344;DHT22;1685;53.104;8.228;2022-11-23T19:04:47;6.00;99.90
3344;DHT22;1685;53.104;8.228;2022-11-23T19:21:57;6.20;99.90
3344;DHT22;1685;53.104;8.228;2022-11-23T19:39:12;6.30;99.90
3344;DHT22;1685;53.104;8.228;2022-11-23T19:46:33;6.30;99.90
3344;DHT22;1685;53.104;8.228;2022-11-23T19:51:27;6.50;99.90
3344;DHT22;1685;53.104;8.228;2022-11-23T19:56:24;6.40;99.90
3344;DHT22;1685;53.104;8.228;2022-11-23T19:58:54;6.40;99.90
3344;DHT22;1685;53.104;8.228;2022-11-23T20:01:23;6.40;99.90
3344;DHT22;1685;53.104;8.228;2022-11-23T20:03:51;6.30;99.90
3344;DHT22;1685;53.104;8.228;2022-11-23T20:06:20;6.30;99.90
3344;DHT22;1685;53.104;8.228;2022-11-23T20:08:53;6.30;99.90
3344;DHT22;1685;53.104;8.228;2022-11-23T20:13:48;6.30;99.90
3344;DHT22;1685;53.104;8.228;2022-11-23T20:16:16;6.20;99.90
3344;DHT22;1685;53.104;8.228;2022-11-23T20:18:44;6.20;99.90
3344;DHT22;1685;53.104;8.228;2022-11-23T20:21:12;6.20;99.90
3344;DHT22;1685;53.104;8.228;2022-11-23T20:31:05;6.10;99.90
3344;DHT22;1685;53.104;8.228;2022-11-23T20:36:08;6.10;99.90
3344;DHT22;1685;53.104;8.228;2022-11-23T20:38:35;6.10;99.90
3344;DHT22;1685;53.104;8.228;2022-11-23T20:41:11;6.00;99.90
3344;DHT22;1685;53.104;8.228;2022-11-23T20:46:06;6.00;99.90
3344;DHT22;1685;53.104;8.228;2022-11-23T20:56:00;6.10;99.90
3344;DHT22;1685;53.104;8.228;2022-11-23T21:03:22;7.70;99.90
3344;DHT22;1685;53.104;8.228;2022-11-23T21:13:34;6.20;99.90
3344;DHT22;1685;53.104;8.228;2022-11-23T21:16:18;6.10;99.90
3344;DHT22;1685;53.104;8.228;2022-11-23T21:18:47;6.10;99.90
3344;DHT22;1685;53.104;8.228;2022-11-23T21:31:05;6.10;99.90
3344;DHT22;1685;53.104;8.228;2022-11-23T21:36:02;6.30;99.90
3344;DHT22;1685;53.104;8.228;2022-11-23T21:41:00;6.40;99.90
3344;DHT22;1685;53.104;8.228;2022-11-23T21:45:59;6.20;99.90
3344;DHT22;1685;53.104;8.228;2022-11-23T21:51:02;6.40;99.90
3344;DHT22;1685;53.104;8.228;2022-11-23T21:53:29;6.40;99.90
3344;DHT22;1685;53.104;8.228;2022-11-23T21:55:59;6.30;99.90
3344;DHT22;1685;53.104;8.228;2022-11-23T22:03:23;6.30;99.90
3344;DHT22;1685;53.104;8.228;2022-11-23T22:05:54;6.40;99.90
3344;DHT22;1685;53.104;8.228;2022-11-23T22:08:23;6.40;99.90
3344;DHT22;1685;53.104;8.228;2022-11-23T22:25:34;6.50;99.90
3344;DHT22;1685;53.104;8.228;2022-11-23T22:40:17;6.50;99.90
3344;DHT22;1685;53.104;8.228;2022-11-23T22:42:45;6.50;99.90
3344;DHT22;1685;53.104;8.228;2022-11-23T22:50:07;6.40;99.90
3344;DHT22;1685;53.104;8.228;2022-11-23T22:55:01;6.60;99.90
3344;DHT22;1685;53.104;8.228;2022-11-23T22:59:56;6.50;99.90